createdAt,value
2022-10-09T00:01:06.369Z,77.09
2022-10-09T00:03:34.388Z,76.38
2022-10-09T00:06:00.970Z,77.54
2022-10-09T00:08:27.482Z,76.90
2022-10-09T00:10:54.583Z,77.06
2022-10-09T00:13:21.295Z,77.41
2022-10-09T00:15:48.122Z,76.80
2022-10-09T00:18:16.995Z,77.80
2022-10-09T00:20:46.200Z,77.05
2022-10-09T00:23:18.244Z,76.83
2022-10-09T00:25:52.707Z,77.76
2022-10-09T00:28:20.463Z,76.78
2022-10-09T00:30:47.127Z,77.27
2022-10-09T00:33:13.907Z,77.18
2022-10-09T00:35:40.900Z,77.54
2022-10-09T00:38:08.122Z,78.01
2022-10-09T00:40:35.539Z,77.06
2022-10-09T00:43:02.584Z,77.08
2022-10-09T00:45:30.077Z,77.34
2022-10-09T00:48:03.182Z,77.78
2022-10-09T00:50:41.948Z,78.05
2022-10-09T00:53:12.978Z,77.75
2022-10-09T00:55:39.838Z,78.26
2022-10-09T00:58:06.678Z,77.51
2022-10-09T01:00:33.349Z,77.41
2022-10-09T01:02:59.826Z,78.26
2022-10-09T01:05:49.682Z,77.92
2022-10-09T01:08:46.549Z,78.59
2022-10-09T01:11:48.373Z,78.59
2022-10-09T01:14:39.519Z,77.79
2022-10-09T01:17:15.329Z,77.99
2022-10-09T01:19:57.862Z,77.27
2022-10-09T01:22:45.108Z,78.20
2022-10-09T01:25:14.997Z,78.19
2022-10-09T01:27:42.217Z,77.20
2022-10-09T01:30:11.033Z,76.70
2022-10-09T01:32:43.016Z,78.03
2022-10-09T01:35:12.570Z,78.07
2022-10-09T01:37:42.146Z,77.80
2022-10-09T01:40:10.201Z,78.02
2022-10-09T01:42:37.048Z,78.03
2022-10-09T01:45:04.065Z,78.14
2022-10-09T01:47:30.621Z,77.77
2022-10-09T01:50:25.997Z,78.68
2022-10-09T01:53:01.075Z,78.11
2022-10-09T01:55:36.253Z,78.36
2022-10-09T01:58:26.969Z,78.49
2022-10-09T02:01:07.981Z,78.39
2022-10-09T02:03:36.267Z,78.91
2022-10-09T02:06:06.114Z,79.01
2022-10-09T02:08:36.170Z,79.15
2022-10-09T02:11:03.563Z,78.74
2022-10-09T02:13:32.406Z,78.57
2022-10-09T02:16:11.016Z,78.51
2022-10-09T02:18:42.596Z,79.41
2022-10-09T02:21:16.528Z,78.56
2022-10-09T02:23:46.234Z,79.27
2022-10-09T02:26:14.104Z,79.10
2022-10-09T02:28:45.678Z,78.48
2022-10-09T02:31:29.541Z,79.02
2022-10-09T02:34:01.393Z,79.36
2022-10-09T02:36:29.247Z,79.83
2022-10-09T02:38:56.621Z,78.63
2022-10-09T02:41:24.096Z,79.15
2022-10-09T02:43:50.613Z,78.56
2022-10-09T02:46:17.462Z,79.11
2022-10-09T02:48:44.460Z,79.21
2022-10-09T02:51:11.563Z,79.66
2022-10-09T02:53:38.163Z,79.08
2022-10-09T02:56:05.023Z,78.84
2022-10-09T02:58:32.642Z,79.87
2022-10-09T03:00:59.369Z,78.48
2022-10-09T03:03:26.197Z,78.37
2022-10-09T03:06:04.371Z,79.60
2022-10-09T03:08:31.534Z,78.73
2022-10-09T03:10:58.089Z,79.22
2022-10-09T03:13:24.698Z,78.42
2022-10-09T03:15:51.354Z,79.20
2022-10-09T03:18:18.029Z,78.73
2022-10-09T03:20:44.849Z,79.63
2022-10-09T03:23:12.300Z,78.23
2022-10-09T03:25:38.812Z,79.45
2022-10-09T03:28:05.465Z,78.46
2022-10-09T03:30:32.085Z,78.99
2022-10-09T03:32:58.580Z,78.02
2022-10-09T03:35:25.136Z,78.64
2022-10-09T03:37:51.597Z,78.60
2022-10-09T03:40:18.434Z,78.19
2022-10-09T03:42:44.925Z,78.57
2022-10-09T03:45:11.440Z,79.16
2022-10-09T03:47:37.918Z,78.56
2022-10-09T03:50:04.739Z,78.38
2022-10-09T03:52:31.395Z,78.01
2022-10-09T03:54:57.901Z,78.19
2022-10-09T03:57:24.362Z,78.37
2022-10-09T03:59:50.835Z,78.75
2022-10-09T04:02:17.402Z,79.29
2022-10-09T04:04:44.023Z,79.16
2022-10-09T04:07:10.500Z,79.32
2022-10-09T04:09:37.067Z,79.07
2022-10-09T04:12:03.770Z,78.41
2022-10-09T04:14:30.225Z,79.17
2022-10-09T04:16:56.706Z,78.67
2022-10-09T04:19:23.183Z,78.40
2022-10-09T04:21:49.655Z,79.11
2022-10-09T04:24:16.738Z,78.83
2022-10-09T04:26:43.205Z,78.74
2022-10-09T04:29:11.283Z,79.17
2022-10-09T04:31:37.815Z,78.89
2022-10-09T04:34:04.522Z,78.82
2022-10-09T04:36:31.071Z,78.79
2022-10-09T04:38:57.647Z,78.98
2022-10-09T04:41:24.193Z,79.59
2022-10-09T04:43:55.766Z,79.70
2022-10-09T04:46:23.925Z,79.72
2022-10-09T04:48:50.437Z,78.72
2022-10-09T04:51:18.597Z,78.85
2022-10-09T04:53:45.939Z,79.12
2022-10-09T04:56:15.141Z,79.12
2022-10-09T04:58:42.609Z,78.96
2022-10-09T05:01:12.146Z,79.86
2022-10-09T05:03:38.667Z,79.18
2022-10-09T05:06:08.214Z,79.27
2022-10-09T05:08:35.803Z,79.92
2022-10-09T05:11:04.909Z,79.83
2022-10-09T05:13:32.473Z,79.97
2022-10-09T05:16:08.351Z,80.10
2022-10-09T05:18:35.627Z,79.95
2022-10-09T05:21:05.334Z,79.52
2022-10-09T05:23:32.861Z,79.76
2022-10-09T05:26:02.170Z,80.37
2022-10-09T05:28:28.760Z,79.51
2022-10-09T05:30:55.580Z,79.66
2022-10-09T05:33:22.130Z,79.85
2022-10-09T05:35:53.162Z,79.31
2022-10-09T05:38:20.726Z,79.90
2022-10-09T05:40:57.925Z,80.06
2022-10-09T05:43:26.420Z,79.73
2022-10-09T05:45:53.420Z,79.89
2022-10-09T05:48:21.226Z,80.05
2022-10-09T05:50:48.185Z,79.76
2022-10-09T05:53:14.962Z,79.67
2022-10-09T05:55:41.457Z,80.09
2022-10-09T05:58:08.037Z,80.05
2022-10-09T06:00:34.553Z,79.69
2022-10-09T06:03:01.092Z,79.95
2022-10-09T06:05:27.610Z,79.35
2022-10-09T06:07:54.173Z,79.63
2022-10-09T06:10:20.686Z,80.36
2022-10-09T06:12:47.467Z,80.02
2022-10-09T06:15:14.363Z,80.03
2022-10-09T06:17:40.831Z,79.78
2022-10-09T06:20:07.643Z,79.63
2022-10-09T06:22:34.227Z,79.75
2022-10-09T06:25:00.689Z,80.10
2022-10-09T06:27:28.079Z,79.43
2022-10-09T06:29:55.992Z,79.80
2022-10-09T06:32:22.461Z,80.12
2022-10-09T06:34:48.996Z,80.22
2022-10-09T06:37:15.486Z,79.44
2022-10-09T06:39:41.937Z,80.16
2022-10-09T06:42:08.388Z,79.85
2022-10-09T06:44:34.913Z,80.46
2022-10-09T06:47:01.420Z,80.50
2022-10-09T06:49:27.953Z,80.17
2022-10-09T06:51:54.472Z,79.94
2022-10-09T06:54:20.932Z,80.38
2022-10-09T06:56:47.396Z,80.16
2022-10-09T06:59:13.894Z,80.54
2022-10-09T07:01:40.524Z,80.73
2022-10-09T07:04:10.999Z,80.43
2022-10-09T07:06:40.005Z,80.26
2022-10-09T07:09:09.435Z,80.43
2022-10-09T07:11:38.416Z,80.52
2022-10-09T07:14:07.287Z,81.24
2022-10-09T07:16:39.747Z,81.25
2022-10-09T07:19:08.247Z,81.05
2022-10-09T07:21:35.479Z,81.51
2022-10-09T07:24:03.691Z,80.89
2022-10-09T07:26:32.065Z,81.44
2022-10-09T07:28:58.786Z,80.88
2022-10-09T07:31:25.824Z,81.85
2022-10-09T07:33:55.306Z,82.64
2022-10-09T07:36:22.004Z,81.87
2022-10-09T07:38:54.932Z,81.63
2022-10-09T07:41:22.642Z,82.78
2022-10-09T07:43:49.525Z,82.46
2022-10-09T07:46:18.713Z,82.12
2022-10-09T07:48:45.944Z,83.19
2022-10-09T07:51:16.679Z,83.30
2022-10-09T07:53:43.410Z,83.08
2022-10-09T07:56:21.261Z,83.00
2022-10-09T07:58:52.911Z,83.11
2022-10-09T08:01:21.535Z,82.90
2022-10-09T08:03:48.886Z,82.91
2022-10-09T08:06:15.959Z,82.93
2022-10-09T08:08:42.810Z,83.14
2022-10-09T08:11:11.894Z,82.51
2022-10-09T08:13:39.850Z,82.54
2022-10-09T08:16:07.269Z,83.01
2022-10-09T08:18:34.666Z,82.72
2022-10-09T08:21:21.663Z,82.62
2022-10-09T08:23:53.889Z,82.10
2022-10-09T08:26:22.213Z,82.59
2022-10-09T08:28:54.405Z,82.97
2022-10-09T08:31:21.832Z,82.61
2022-10-09T08:33:52.014Z,81.38
2022-10-09T08:36:18.725Z,82.20
2022-10-09T08:38:47.845Z,81.97
2022-10-09T08:41:17.575Z,82.25
2022-10-09T08:43:52.136Z,82.61
2022-10-09T08:46:34.327Z,82.39
2022-10-09T08:49:03.999Z,81.12
2022-10-09T08:51:35.726Z,81.37
2022-10-09T08:54:11.164Z,81.24
2022-10-09T08:56:38.175Z,81.23
2022-10-09T08:59:04.745Z,80.21
2022-10-09T09:01:49.745Z,80.69
2022-10-09T09:04:34.654Z,80.28
2022-10-09T09:07:13.949Z,79.62
2022-10-09T09:10:02.727Z,79.01
2022-10-09T09:12:44.218Z,78.83
2022-10-09T09:15:25.969Z,78.68
2022-10-09T09:18:04.685Z,77.82
2022-10-09T09:20:49.814Z,76.95
2022-10-09T09:23:16.533Z,76.31
2022-10-09T09:25:45.920Z,75.57
2022-10-09T09:28:18.783Z,74.30
2022-10-09T09:30:49.678Z,74.60
2022-10-09T09:33:25.520Z,71.96
2022-10-09T09:36:16.270Z,71.31
2022-10-09T09:39:11.013Z,71.94
2022-10-09T09:41:29.370Z,70.61
2022-10-09T09:43:55.898Z,70.36
2022-10-09T09:46:26.237Z,69.23
2022-10-09T09:48:53.712Z,68.41
2022-10-09T09:51:30.028Z,68.23
2022-10-09T09:54:04.093Z,67.03
2022-10-09T09:57:10.482Z,65.97
2022-10-09T09:59:43.915Z,64.83
2022-10-09T10:02:21.198Z,64.38
2022-10-09T10:04:51.445Z,61.10
2022-10-09T10:07:32.476Z,60.56
2022-10-09T10:10:24.703Z,61.20
2022-10-09T10:12:52.038Z,61.18
2022-10-09T10:15:25.705Z,60.56
2022-10-09T10:18:12.797Z,58.70
2022-10-09T10:20:48.253Z,58.52
2022-10-09T10:23:35.800Z,56.73
2022-10-09T10:26:08.124Z,58.14
2022-10-09T10:28:48.662Z,57.06
2022-10-09T10:31:31.899Z,58.21
2022-10-09T10:34:01.590Z,57.96
2022-10-09T10:36:28.802Z,58.70
2022-10-09T10:39:09.120Z,57.64
2022-10-09T10:41:45.446Z,57.68
2022-10-09T10:44:30.203Z,58.59
2022-10-09T10:47:04.082Z,58.14
2022-10-09T10:49:33.840Z,58.39
2022-10-09T10:52:20.417Z,57.36
2022-10-09T10:54:51.535Z,56.74
2022-10-09T10:57:29.540Z,56.05
2022-10-09T11:00:06.469Z,55.48
2022-10-09T11:02:57.917Z,52.73
2022-10-09T11:05:27.042Z,53.24
2022-10-09T11:08:13.042Z,52.43
2022-10-09T11:10:58.405Z,50.34
2022-10-09T11:13:49.890Z,50.87
2022-10-09T11:16:51.856Z,49.89
2022-10-09T11:19:56.218Z,49.58
2022-10-09T11:22:41.427Z,49.27
2022-10-09T11:25:13.938Z,50.90
2022-10-09T11:28:05.062Z,49.24
2022-10-09T11:30:41.898Z,49.74
2022-10-09T11:33:46.856Z,48.47
2022-10-09T11:36:21.143Z,47.23
2022-10-09T11:39:00.507Z,46.43
2022-10-09T11:41:28.958Z,46.98
2022-10-09T11:44:16.739Z,45.45
2022-10-09T11:47:01.460Z,46.30
2022-10-09T11:49:47.489Z,46.59
2022-10-09T11:52:28.508Z,47.62
2022-10-09T11:54:55.070Z,49.53
2022-10-09T11:57:29.181Z,49.07
2022-10-09T12:00:09.127Z,50.95
2022-10-09T12:02:36.878Z,50.11
2022-10-09T12:05:27.809Z,49.39
2022-10-09T12:07:54.336Z,49.14
2022-10-09T12:10:34.068Z,48.20
2022-10-09T12:13:03.984Z,47.79
2022-10-09T12:15:59.413Z,45.43
2022-10-09T12:18:34.530Z,45.59
2022-10-09T12:21:05.267Z,46.22
2022-10-09T12:23:35.942Z,47.09
2022-10-09T12:26:03.685Z,47.25
2022-10-09T12:28:46.289Z,45.57
2022-10-09T12:31:22.278Z,46.28
2022-10-09T12:33:54.755Z,46.49
2022-10-09T12:36:30.055Z,46.54
2022-10-09T12:38:57.074Z,46.87
2022-10-09T12:41:29.903Z,47.01
2022-10-09T12:43:57.569Z,45.54
2022-10-09T12:46:30.576Z,44.80
2022-10-09T12:48:58.434Z,45.16
2022-10-09T12:51:26.959Z,45.77
2022-10-09T12:53:54.427Z,45.54
2022-10-09T12:56:28.334Z,46.49
2022-10-09T12:58:55.754Z,45.09
2022-10-09T13:01:23.412Z,46.11
2022-10-09T13:04:03.437Z,46.27
2022-10-09T13:06:45.176Z,46.84
2022-10-09T13:09:21.443Z,46.60
2022-10-09T13:11:54.926Z,46.25
2022-10-09T13:14:33.709Z,46.78
2022-10-09T13:17:00.779Z,46.92
2022-10-09T13:19:29.115Z,47.89
2022-10-09T13:22:14.039Z,47.22
2022-10-09T13:24:40.545Z,47.33
2022-10-09T13:27:07.051Z,47.69
2022-10-09T13:29:33.581Z,48.41
2022-10-09T13:32:00.151Z,47.98
2022-10-09T13:34:28.966Z,48.72
2022-10-09T13:36:56.718Z,46.63
2022-10-09T13:39:23.311Z,47.32
2022-10-09T13:41:52.967Z,47.52
2022-10-09T13:44:19.510Z,47.22
2022-10-09T13:46:45.994Z,47.97
2022-10-09T13:49:12.487Z,47.55
2022-10-09T13:51:38.992Z,47.58
2022-10-09T13:54:05.550Z,47.22
2022-10-09T13:56:32.318Z,47.66
2022-10-09T13:58:58.966Z,47.85
2022-10-09T14:01:25.654Z,47.54
2022-10-09T14:03:52.194Z,47.76
2022-10-09T14:06:18.890Z,47.19
2022-10-09T14:08:45.454Z,47.68
2022-10-09T14:11:11.922Z,47.63
2022-10-09T14:13:38.398Z,48.41
2022-10-09T14:16:06.855Z,47.25
2022-10-09T14:18:33.796Z,47.94
2022-10-09T14:21:00.374Z,47.99
2022-10-09T14:23:26.939Z,47.74
2022-10-09T14:25:53.410Z,47.13
2022-10-09T14:28:19.979Z,47.67
2022-10-09T14:30:46.500Z,47.75
2022-10-09T14:33:12.989Z,48.16
2022-10-09T14:35:39.686Z,48.62
2022-10-09T14:38:06.264Z,47.81
2022-10-09T14:40:32.785Z,48.19
2022-10-09T14:42:59.257Z,47.62
2022-10-09T14:45:25.831Z,46.93
2022-10-09T14:47:52.399Z,47.44
2022-10-09T14:50:18.920Z,47.66
2022-10-09T14:52:45.408Z,47.67
2022-10-09T14:55:11.994Z,46.86
2022-10-09T14:57:38.501Z,47.01
2022-10-09T15:00:05.570Z,46.10
2022-10-09T15:02:32.246Z,45.83
2022-10-09T15:04:58.776Z,45.99
2022-10-09T15:07:27.994Z,46.15
2022-10-09T15:09:54.973Z,45.57
2022-10-09T15:12:21.460Z,45.36
2022-10-09T15:14:48.047Z,44.96
2022-10-09T15:17:14.532Z,45.08
2022-10-09T15:19:41.033Z,44.75
2022-10-09T15:22:07.506Z,45.12
2022-10-09T15:24:33.994Z,45.17
2022-10-09T15:27:00.562Z,45.47
2022-10-09T15:29:27.099Z,44.93
2022-10-09T15:31:53.620Z,45.46
2022-10-09T15:34:20.199Z,45.06
2022-10-09T15:36:47.145Z,45.72
2022-10-09T15:39:14.031Z,45.83
2022-10-09T15:41:42.165Z,45.91
2022-10-09T15:44:20.568Z,46.29
2022-10-09T15:46:48.951Z,46.75
2022-10-09T15:49:15.992Z,47.28
2022-10-09T15:51:42.989Z,46.91
2022-10-09T15:54:11.373Z,47.14
2022-10-09T15:56:40.127Z,47.10
2022-10-09T15:59:07.071Z,46.98
2022-10-09T16:01:33.627Z,47.00
2022-10-09T16:04:00.154Z,46.51
2022-10-09T16:06:26.762Z,45.66
2022-10-09T16:08:57.941Z,45.59
2022-10-09T16:11:26.615Z,46.09
2022-10-09T16:13:54.468Z,46.36
2022-10-09T16:16:24.200Z,46.36
2022-10-09T16:18:51.478Z,46.60
2022-10-09T16:21:24.014Z,46.55
2022-10-09T16:23:54.470Z,47.35
2022-10-09T16:26:24.115Z,47.46
2022-10-09T16:28:52.243Z,47.43
2022-10-09T16:31:21.630Z,48.13
2022-10-09T16:33:48.327Z,48.13
2022-10-09T16:36:14.860Z,47.97
2022-10-09T16:38:41.701Z,47.94
2022-10-09T16:41:14.736Z,48.02
2022-10-09T16:43:41.201Z,48.28
2022-10-09T16:46:16.712Z,48.81
2022-10-09T16:48:44.000Z,48.16
2022-10-09T16:51:13.606Z,48.49
2022-10-09T16:53:41.048Z,48.97
2022-10-09T16:56:12.680Z,48.51
2022-10-09T16:58:41.334Z,48.42
2022-10-09T17:01:10.285Z,49.91
2022-10-09T17:03:40.408Z,49.10
2022-10-09T17:06:19.438Z,49.26
2022-10-09T17:08:47.453Z,49.74
2022-10-09T17:11:15.449Z,50.47
2022-10-09T17:13:42.286Z,49.89
2022-10-09T17:16:17.836Z,49.95
2022-10-09T17:18:45.095Z,49.90
2022-10-09T17:21:13.597Z,50.71
2022-10-09T17:23:40.131Z,50.69
2022-10-09T17:26:14.188Z,50.28
2022-10-09T17:28:41.708Z,51.04
2022-10-09T17:31:14.282Z,51.16
2022-10-09T17:33:42.950Z,51.19
2022-10-09T17:36:10.358Z,51.42
2022-10-09T17:38:37.505Z,51.73
2022-10-09T17:41:08.769Z,51.88
2022-10-09T17:43:35.276Z,53.00
2022-10-09T17:46:02.219Z,52.91
2022-10-09T17:48:29.276Z,53.02
2022-10-09T17:50:57.899Z,53.67
2022-10-09T17:53:24.981Z,54.32
2022-10-09T17:55:53.549Z,54.13
2022-10-09T17:58:21.743Z,54.21
2022-10-09T18:00:49.390Z,54.68
2022-10-09T18:03:18.089Z,54.55
2022-10-09T18:05:49.311Z,54.48
2022-10-09T18:08:18.755Z,56.16
2022-10-09T18:10:45.350Z,55.85
2022-10-09T18:13:12.323Z,56.09
2022-10-09T18:15:43.728Z,56.50
2022-10-09T18:18:11.511Z,56.97
2022-10-09T18:20:39.291Z,56.94
2022-10-09T18:23:07.137Z,56.98
2022-10-09T18:25:34.332Z,57.76
2022-10-09T18:28:00.869Z,57.78
2022-10-09T18:30:27.815Z,57.86
2022-10-09T18:32:54.680Z,58.23
2022-10-09T18:35:21.552Z,58.74
2022-10-09T18:37:48.039Z,58.57
2022-10-09T18:40:14.608Z,58.83
2022-10-09T18:42:41.130Z,59.10
2022-10-09T18:45:09.939Z,59.53
2022-10-09T18:47:36.435Z,60.18
2022-10-09T18:50:07.932Z,60.38
2022-10-09T18:52:35.463Z,59.89
2022-10-09T18:55:03.763Z,59.98
2022-10-09T18:57:30.448Z,60.77
2022-10-09T18:59:58.137Z,60.61
2022-10-09T19:02:26.943Z,61.06
2022-10-09T19:04:54.592Z,61.77
2022-10-09T19:07:21.440Z,61.84
2022-10-09T19:09:56.329Z,62.16
2022-10-09T19:12:24.147Z,62.05
2022-10-09T19:14:50.650Z,62.29
2022-10-09T19:17:17.216Z,62.70
2022-10-09T19:19:43.735Z,62.33
2022-10-09T19:22:14.188Z,62.49
2022-10-09T19:24:42.757Z,62.77
2022-10-09T19:27:09.529Z,62.86
2022-10-09T19:29:36.113Z,63.75
2022-10-09T19:32:02.695Z,63.67
2022-10-09T19:34:30.367Z,62.90
2022-10-09T19:36:56.946Z,63.96
2022-10-09T19:39:23.490Z,63.39
2022-10-09T19:41:51.114Z,64.99
2022-10-09T19:44:18.167Z,64.60
2022-10-09T19:46:45.262Z,63.94
2022-10-09T19:49:11.814Z,64.27
2022-10-09T19:51:38.666Z,65.59
2022-10-09T19:54:07.202Z,64.51
2022-10-09T19:56:34.748Z,65.51
2022-10-09T19:59:03.858Z,65.83
2022-10-09T20:01:32.830Z,65.43
2022-10-09T20:04:02.034Z,66.23
2022-10-09T20:06:28.875Z,66.12
2022-10-09T20:08:55.567Z,66.73
2022-10-09T20:11:22.500Z,66.44
2022-10-09T20:13:53.437Z,66.80
2022-10-09T20:16:22.700Z,67.71
2022-10-09T20:18:49.267Z,67.27
2022-10-09T20:21:17.817Z,67.75
2022-10-09T20:23:44.372Z,66.96
2022-10-09T20:26:16.817Z,67.56
2022-10-09T20:28:43.956Z,66.97
2022-10-09T20:31:17.982Z,66.95
2022-10-09T20:33:46.042Z,67.84
2022-10-09T20:36:19.780Z,67.98
2022-10-09T20:38:46.407Z,67.40
2022-10-09T20:41:13.039Z,67.62
2022-10-09T20:43:42.291Z,67.91
2022-10-09T20:46:12.345Z,68.31
2022-10-09T20:48:39.361Z,68.74
2022-10-09T20:51:06.112Z,69.20
2022-10-09T20:53:33.231Z,68.76
2022-10-09T20:56:01.470Z,69.56
2022-10-09T20:58:28.911Z,69.52
2022-10-09T21:00:55.668Z,68.97
2022-10-09T21:03:22.523Z,69.32
2022-10-09T21:05:49.108Z,69.48
2022-10-09T21:08:15.934Z,69.16
2022-10-09T21:10:44.906Z,70.64
2022-10-09T21:13:12.047Z,69.94
2022-10-09T21:15:47.441Z,69.94
2022-10-09T21:18:15.269Z,69.66
2022-10-09T21:20:43.511Z,70.04
2022-10-09T21:23:11.487Z,69.94
2022-10-09T21:25:38.812Z,70.13
2022-10-09T21:28:05.967Z,70.15
2022-10-09T21:30:41.309Z,70.67
2022-10-09T21:33:08.961Z,70.02
2022-10-09T21:35:48.993Z,70.98
2022-10-09T21:38:18.407Z,71.05
2022-10-09T21:40:45.598Z,71.62
2022-10-09T21:43:13.070Z,70.14
2022-10-09T21:45:40.681Z,71.24
2022-10-09T21:48:07.716Z,70.54
2022-10-09T21:50:36.217Z,71.04
2022-10-09T21:53:04.100Z,71.49
2022-10-09T21:55:30.751Z,71.74
2022-10-09T21:57:57.290Z,71.50
2022-10-09T22:00:23.795Z,72.11
2022-10-09T22:02:50.462Z,71.55
2022-10-09T22:05:17.202Z,72.26
2022-10-09T22:07:43.695Z,71.34
2022-10-09T22:10:10.566Z,71.58
2022-10-09T22:12:37.598Z,71.55
2022-10-09T22:15:04.796Z,72.51
2022-10-09T22:17:31.271Z,72.54
2022-10-09T22:19:57.744Z,72.70
2022-10-09T22:22:24.339Z,72.85
2022-10-09T22:24:51.865Z,73.26
2022-10-09T22:27:18.748Z,72.83
2022-10-09T22:29:45.816Z,72.43
2022-10-09T22:32:12.624Z,73.16
2022-10-09T22:34:39.140Z,72.70
2022-10-09T22:37:05.687Z,72.92
2022-10-09T22:39:32.147Z,73.53
2022-10-09T22:41:58.657Z,72.69
2022-10-09T22:44:25.226Z,73.67
2022-10-09T22:46:51.829Z,73.74
2022-10-09T22:49:18.685Z,73.35
2022-10-09T22:51:45.775Z,73.14
2022-10-09T22:54:13.209Z,73.56
2022-10-09T22:56:44.681Z,74.49
2022-10-09T22:59:14.708Z,73.06
2022-10-09T23:01:43.348Z,74.13
2022-10-09T23:04:14.751Z,74.08
2022-10-09T23:06:42.449Z,74.53
2022-10-09T23:09:11.841Z,73.28
2022-10-09T23:11:38.352Z,73.36
2022-10-09T23:14:05.976Z,73.91
2022-10-09T23:16:32.576Z,74.47
2022-10-09T23:19:06.197Z,74.02
2022-10-09T23:21:33.875Z,74.73
2022-10-09T23:24:00.391Z,73.68
2022-10-09T23:26:29.354Z,73.61
2022-10-09T23:28:59.022Z,74.47
2022-10-09T23:31:26.849Z,73.76
2022-10-09T23:33:54.106Z,75.02
2022-10-09T23:36:23.104Z,74.99
2022-10-09T23:38:50.292Z,74.72
2022-10-09T23:41:20.271Z,75.39
2022-10-09T23:43:48.172Z,75.24
2022-10-09T23:46:17.423Z,75.28
2022-10-09T23:48:44.697Z,74.39
2022-10-09T23:51:12.149Z,75.04
2022-10-09T23:53:38.853Z,74.69
2022-10-09T23:56:12.055Z,74.05
2022-10-09T23:58:38.565Z,75.41
